createdAt,value
2023-03-11T00:00:47.315Z,101714.94
2023-03-11T00:03:51.669Z,101718.16
2023-03-11T00:06:55.917Z,101716.56
2023-03-11T00:10:00.491Z,101705.81
2023-03-11T00:13:08.271Z,101728.06
2023-03-11T00:16:12.334Z,101730.88
2023-03-11T00:19:16.236Z,101733.84
2023-03-11T00:22:20.437Z,101728.81
2023-03-11T00:25:26.223Z,101729.91
2023-03-11T00:28:30.770Z,101736.53
2023-03-11T00:31:35.652Z,101718.69
2023-03-11T00:34:40.212Z,101749.66
2023-03-11T00:37:44.912Z,101749.16
2023-03-11T00:40:49.461Z,101724.81
2023-03-11T00:43:53.582Z,101725.00
2023-03-11T00:46:57.321Z,101727.53
2023-03-11T00:50:01.769Z,101619.84
2023-03-11T00:53:07.318Z,101720.69
2023-03-11T00:56:16.524Z,101730.50
2023-03-11T00:59:20.694Z,101723.28
2023-03-11T01:02:26.268Z,101718.13
2023-03-11T01:05:33.930Z,101741.94
2023-03-11T01:08:39.375Z,101743.38
2023-03-11T01:11:43.314Z,101751.00
2023-03-11T01:14:47.954Z,101765.38
2023-03-11T01:17:52.061Z,101731.78
2023-03-11T01:20:55.924Z,101740.44
2023-03-11T01:23:59.935Z,101742.22
2023-03-11T01:27:04.295Z,101744.66
2023-03-11T01:30:09.114Z,101762.28
2023-03-11T01:33:18.836Z,101760.16
2023-03-11T01:36:22.737Z,101769.28
2023-03-11T01:39:26.732Z,101775.88
2023-03-11T01:42:30.994Z,101770.47
2023-03-11T01:46:04.062Z,101769.59
2023-03-11T01:49:13.896Z,101784.75
2023-03-11T01:52:18.021Z,101668.56
2023-03-11T01:55:27.663Z,101775.81
2023-03-11T01:58:36.824Z,101774.22
2023-03-11T02:01:51.988Z,101770.75
2023-03-11T02:04:58.002Z,101776.66
2023-03-11T02:08:01.831Z,101768.78
2023-03-11T02:11:15.042Z,101801.78
2023-03-11T02:14:20.489Z,101769.88
2023-03-11T02:17:25.257Z,101775.97
2023-03-11T02:20:44.304Z,101795.06
2023-03-11T02:23:53.682Z,101794.16
2023-03-11T02:26:59.444Z,101794.25
2023-03-11T02:30:06.257Z,101772.66
2023-03-11T02:33:15.224Z,101795.03
2023-03-11T02:36:39.018Z,101786.44
2023-03-11T02:39:48.755Z,101798.16
2023-03-11T02:42:57.570Z,101792.09
2023-03-11T02:46:02.492Z,101766.75
2023-03-11T02:49:08.332Z,101796.84
2023-03-11T02:52:13.689Z,101778.50
2023-03-11T02:55:19.006Z,101769.63
2023-03-11T02:58:23.037Z,101795.06
2023-03-11T03:01:27.777Z,101798.47
2023-03-11T03:04:32.087Z,101809.88
2023-03-11T03:07:37.431Z,101812.50
2023-03-11T03:10:41.401Z,101797.56
2023-03-11T03:13:46.129Z,101771.94
2023-03-11T03:16:50.506Z,101794.03
2023-03-11T03:19:55.653Z,101806.50
2023-03-11T03:22:59.706Z,101811.72
2023-03-11T03:26:09.535Z,101812.66
2023-03-11T03:29:14.838Z,101809.91
2023-03-11T03:32:19.589Z,101808.00
2023-03-11T03:35:26.316Z,101795.91
2023-03-11T03:38:36.054Z,101793.25
2023-03-11T03:41:40.718Z,101816.16
2023-03-11T03:44:45.186Z,101791.47
2023-03-11T03:47:49.601Z,101796.75
2023-03-11T03:50:54.308Z,101795.81
2023-03-11T03:53:58.809Z,101795.78
2023-03-11T03:57:05.733Z,101687.78
2023-03-11T04:00:18.194Z,101792.25
2023-03-11T04:03:29.722Z,101789.59
2023-03-11T04:06:39.410Z,101764.91
2023-03-11T04:09:44.891Z,101772.91
2023-03-11T04:12:49.555Z,101757.00
2023-03-11T04:15:53.992Z,101762.25
2023-03-11T04:18:58.619Z,101748.94
2023-03-11T04:22:02.691Z,101742.34
2023-03-11T04:25:07.152Z,101746.06
2023-03-11T04:28:11.285Z,101757.38
2023-03-11T04:31:15.665Z,101739.91
2023-03-11T04:34:19.796Z,101742.38
2023-03-11T04:37:24.237Z,101770.66
2023-03-11T04:40:29.072Z,101751.56
2023-03-11T04:43:33.573Z,101750.44
2023-03-11T04:46:37.513Z,101726.56
2023-03-11T04:49:44.688Z,101712.72
2023-03-11T04:52:49.548Z,101722.13
2023-03-11T04:55:54.574Z,101728.22
2023-03-11T04:58:58.659Z,101721.09
2023-03-11T05:02:03.779Z,101734.22
2023-03-11T05:05:10.267Z,101726.22
2023-03-11T05:08:15.784Z,101759.94
2023-03-11T05:11:19.503Z,101748.34
2023-03-11T05:14:25.483Z,101712.84
2023-03-11T05:17:31.690Z,101711.34
2023-03-11T05:20:35.779Z,101735.97
2023-03-11T05:23:40.744Z,101730.75
2023-03-11T05:26:48.432Z,101737.97
2023-03-11T05:29:53.547Z,101753.78
2023-03-11T05:32:59.204Z,101752.91
2023-03-11T05:36:09.116Z,101756.34
2023-03-11T05:39:17.038Z,101760.72
2023-03-11T05:42:21.604Z,101765.66
2023-03-11T05:45:29.227Z,101759.72
2023-03-11T05:48:37.060Z,101774.56
2023-03-11T05:51:42.119Z,101766.88
2023-03-11T05:54:46.563Z,101777.25
2023-03-11T05:57:53.207Z,101760.22
2023-03-11T06:00:58.107Z,101722.44
2023-03-11T06:04:03.021Z,101766.81
2023-03-11T06:07:07.043Z,101759.44
2023-03-11T06:10:14.496Z,101752.25
2023-03-11T06:13:19.119Z,101767.13
2023-03-11T06:16:28.562Z,101760.50
2023-03-11T06:19:36.330Z,101767.31
2023-03-11T06:22:40.667Z,101763.09
2023-03-11T06:25:45.643Z,101782.34
2023-03-11T06:28:51.770Z,101769.78
2023-03-11T06:31:56.281Z,101773.44
2023-03-11T06:35:00.419Z,101778.00
2023-03-11T06:38:04.436Z,101767.44
2023-03-11T06:41:09.593Z,101800.13
2023-03-11T06:44:13.787Z,101798.19
2023-03-11T06:47:18.583Z,101747.03
2023-03-11T06:50:24.675Z,101786.97
2023-03-11T06:53:31.285Z,101784.38
2023-03-11T06:56:36.126Z,101791.38
2023-03-11T06:59:43.825Z,101777.91
2023-03-11T07:02:50.936Z,101795.66
2023-03-11T07:05:55.020Z,101663.78
2023-03-11T07:08:59.747Z,101796.53
2023-03-11T07:16:45.439Z,101660.44
2023-03-11T07:20:21.763Z,101759.63
2023-03-11T07:28:05.191Z,101764.56
2023-03-11T07:31:43.627Z,101710.50
2023-03-11T07:35:21.936Z,101733.66
2023-03-11T07:39:28.768Z,101796.31
2023-03-11T07:43:03.942Z,101800.59
2023-03-11T07:46:24.546Z,101725.19
2023-03-11T07:49:48.437Z,101744.59
2023-03-11T07:52:52.927Z,101813.56
2023-03-11T07:56:00.766Z,101784.16
2023-03-11T07:59:06.141Z,101817.00
2023-03-11T08:02:11.688Z,101806.25
2023-03-11T08:05:16.083Z,101818.34
2023-03-11T08:08:23.196Z,101630.44
2023-03-11T08:11:27.476Z,101790.88
2023-03-11T08:14:31.221Z,101811.00
2023-03-11T08:17:35.429Z,101803.38
2023-03-11T08:20:40.920Z,101813.91
2023-03-11T08:23:48.118Z,101808.53
2023-03-11T08:26:52.154Z,101808.72
2023-03-11T08:29:56.290Z,101803.28
2023-03-11T08:33:00.865Z,101813.69
2023-03-11T08:36:05.272Z,101822.53
2023-03-11T08:39:10.149Z,101831.28
2023-03-11T08:42:14.300Z,101825.72
2023-03-11T08:45:18.967Z,101825.47
2023-03-11T08:48:26.280Z,101834.75
2023-03-11T08:51:31.898Z,101843.06
2023-03-11T08:54:36.222Z,101839.25
2023-03-11T08:57:41.774Z,101853.03
2023-03-11T09:00:45.789Z,101855.78
2023-03-11T09:03:49.792Z,101848.75
2023-03-11T09:06:53.783Z,101863.19
2023-03-11T09:10:02.037Z,101858.84
2023-03-11T09:13:06.488Z,101868.81
2023-03-11T09:16:15.212Z,101868.00
2023-03-11T09:19:20.732Z,101858.00
2023-03-11T09:22:25.511Z,101845.63
2023-03-11T09:25:29.681Z,101867.72
2023-03-11T09:28:34.311Z,101860.56
2023-03-11T09:31:39.415Z,101868.63
2023-03-11T09:34:43.971Z,101872.34
2023-03-11T09:37:47.973Z,101881.63
2023-03-11T09:41:18.222Z,101863.56
2023-03-11T09:44:57.798Z,101888.16
2023-03-11T09:48:32.163Z,101897.75
2023-03-11T09:51:47.824Z,101908.34
2023-03-11T09:54:56.609Z,101909.19
2023-03-11T09:58:05.772Z,101909.66
2023-03-11T10:01:31.054Z,101900.16
2023-03-11T10:04:43.307Z,101904.72
2023-03-11T10:07:56.341Z,101907.28
2023-03-11T10:11:31.408Z,101908.97
2023-03-11T10:14:41.753Z,101902.84
2023-03-11T10:18:14.796Z,101900.53
2023-03-11T10:21:30.974Z,101892.97
2023-03-11T10:25:16.695Z,101916.38
2023-03-11T10:28:24.008Z,101889.09
2023-03-11T10:31:49.891Z,101920.22
2023-03-11T10:34:58.368Z,101933.88
2023-03-11T10:38:12.915Z,101925.03
2023-03-11T10:42:03.598Z,101922.00
2023-03-11T10:45:14.936Z,101913.34
2023-03-11T10:48:21.571Z,101934.66
2023-03-11T10:51:35.529Z,101947.16
2023-03-11T10:54:46.975Z,101912.44
2023-03-11T10:57:52.985Z,101935.50
2023-03-11T11:01:17.279Z,101951.53
2023-03-11T11:04:39.077Z,101932.06
2023-03-11T11:07:44.386Z,101932.69
2023-03-11T11:11:00.486Z,101922.13
2023-03-11T11:14:04.649Z,101920.53
2023-03-11T11:17:25.130Z,101949.13
2023-03-11T11:20:31.444Z,101932.41
2023-03-11T11:23:49.795Z,101903.84
2023-03-11T11:27:13.062Z,101929.16
2023-03-11T11:30:20.599Z,101942.78
2023-03-11T11:33:28.588Z,101921.03
2023-03-11T11:36:36.988Z,101928.59
2023-03-11T11:39:53.320Z,101940.41
2023-03-11T11:43:11.076Z,101933.19
2023-03-11T11:46:57.022Z,101929.72
2023-03-11T11:50:08.208Z,101933.97
2023-03-11T11:53:45.518Z,101930.22
2023-03-11T11:56:49.867Z,101916.47
2023-03-11T11:59:56.467Z,101930.63
2023-03-11T12:03:11.341Z,101922.22
2023-03-11T12:06:27.412Z,101930.00
2023-03-11T12:09:38.701Z,101909.06
2023-03-11T12:13:20.223Z,101927.91
2023-03-11T12:17:05.453Z,101912.47
2023-03-11T12:20:29.557Z,101912.84
2023-03-11T12:23:38.084Z,101909.97
2023-03-11T12:26:44.877Z,101914.38
2023-03-11T12:29:59.233Z,101910.22
2023-03-11T12:33:23.910Z,101900.84
2023-03-11T12:36:33.102Z,101899.47
2023-03-11T12:39:37.496Z,101903.75
2023-03-11T12:42:42.244Z,101902.81
2023-03-11T12:45:52.531Z,101919.91
2023-03-11T12:49:33.671Z,101930.53
2023-03-11T12:52:54.845Z,101926.88
2023-03-11T12:56:12.758Z,101925.81
2023-03-11T12:59:46.250Z,101897.06
2023-03-11T13:03:02.957Z,101921.22
2023-03-11T13:06:32.332Z,101911.56
2023-03-11T13:09:36.650Z,101908.91
2023-03-11T13:12:46.461Z,101907.13
2023-03-11T13:15:50.934Z,101889.09
2023-03-11T13:18:54.608Z,101911.69
2023-03-11T13:22:00.842Z,101920.66
2023-03-11T13:25:31.839Z,101901.63
2023-03-11T13:28:51.480Z,101902.38
2023-03-11T13:32:06.106Z,101909.91
2023-03-11T13:35:36.650Z,101909.44
2023-03-11T13:38:53.296Z,101825.03
2023-03-11T13:41:57.511Z,101882.41
2023-03-11T13:45:02.644Z,101899.34
2023-03-11T13:48:19.691Z,101903.25
2023-03-11T13:51:32.325Z,101894.97
2023-03-11T13:54:54.217Z,101915.25
2023-03-11T13:57:59.071Z,101897.38
2023-03-11T14:01:04.181Z,101918.25
2023-03-11T14:04:12.531Z,101905.59
2023-03-11T14:07:25.189Z,101894.34
2023-03-11T14:10:31.526Z,101926.84
2023-03-11T14:13:41.008Z,101918.03
2023-03-11T14:16:46.069Z,101878.94
2023-03-11T14:20:17.428Z,101896.66
2023-03-11T14:23:22.634Z,101886.41
2023-03-11T14:26:33.765Z,101924.63
2023-03-11T14:29:41.149Z,101908.22
2023-03-11T14:32:57.939Z,101899.94
2023-03-11T14:36:06.875Z,101929.13
2023-03-11T14:39:47.687Z,101932.66
2023-03-11T14:42:57.050Z,101800.00
2023-03-11T14:46:02.258Z,101934.75
2023-03-11T14:49:14.310Z,101935.34
2023-03-11T14:52:42.504Z,101940.84
2023-03-11T14:56:12.824Z,101928.41
2023-03-11T14:59:27.403Z,101916.34
2023-03-11T15:02:41.173Z,101934.25
2023-03-11T15:06:04.737Z,101938.13
2023-03-11T15:09:16.769Z,101939.75
2023-03-11T15:12:50.573Z,101949.59
2023-03-11T15:16:02.708Z,101894.75
2023-03-11T15:19:32.243Z,101958.81
2023-03-11T15:22:41.626Z,101957.13
2023-03-11T15:25:51.471Z,101952.44
2023-03-11T15:28:58.272Z,101960.59
2023-03-11T15:32:22.241Z,101956.16
2023-03-11T15:35:31.061Z,101962.56
2023-03-11T15:38:35.076Z,101960.03
2023-03-11T15:41:39.069Z,101954.22
2023-03-11T15:48:17.148Z,101972.13
2023-03-11T15:51:21.930Z,101967.66
2023-03-11T15:54:26.425Z,101902.41
2023-03-11T15:57:31.702Z,101956.69
2023-03-11T16:00:37.087Z,101949.59
2023-03-11T16:03:41.721Z,101942.09
2023-03-11T16:06:53.947Z,101908.25
2023-03-11T16:10:08.593Z,101967.97
2023-03-11T16:13:16.979Z,101957.22
2023-03-11T16:16:21.466Z,101948.81
2023-03-11T16:19:25.718Z,101951.72
2023-03-11T16:22:37.409Z,101923.56
2023-03-11T16:25:42.153Z,101968.50
2023-03-11T16:28:46.279Z,101960.13
2023-03-11T16:31:50.453Z,101953.31
2023-03-11T16:34:54.943Z,101951.47
2023-03-11T16:37:59.004Z,101970.00
2023-03-11T16:41:04.484Z,101986.41
2023-03-11T16:44:09.745Z,101985.72
2023-03-11T16:47:14.637Z,101961.75
2023-03-11T16:50:21.629Z,101972.28
2023-03-11T16:53:27.136Z,101981.78
2023-03-11T16:56:31.925Z,101979.66
2023-03-11T16:59:36.076Z,101964.94
2023-03-11T17:02:40.375Z,101979.13
2023-03-11T17:05:44.536Z,101954.19
2023-03-11T17:08:50.883Z,101974.09
2023-03-11T17:11:54.906Z,101973.53
2023-03-11T17:14:58.816Z,101962.72
2023-03-11T17:18:03.537Z,101976.19
2023-03-11T17:21:13.037Z,101991.16
2023-03-11T17:24:17.218Z,101947.34
2023-03-11T17:27:23.026Z,101949.78
2023-03-11T17:30:36.478Z,101949.66
2023-03-11T17:33:44.615Z,101945.56
2023-03-11T17:36:49.690Z,101896.63
2023-03-11T17:39:54.222Z,101935.44
2023-03-11T17:42:58.351Z,101950.56
2023-03-11T17:46:02.170Z,101939.41
2023-03-11T17:49:06.061Z,101925.03
2023-03-11T17:52:10.126Z,101869.75
2023-03-11T17:55:14.474Z,101952.03
2023-03-11T17:58:18.544Z,101954.00
2023-03-11T18:01:28.111Z,101963.34
2023-03-11T18:04:32.504Z,101960.25
2023-03-11T18:07:39.696Z,101954.72
2023-03-11T18:10:53.365Z,101973.38
2023-03-11T18:13:57.486Z,101950.81
2023-03-11T18:17:01.984Z,101956.44
2023-03-11T18:20:06.675Z,101950.44
2023-03-11T18:23:10.687Z,101943.53
2023-03-11T18:26:19.283Z,101939.75
2023-03-11T18:29:24.430Z,101920.16
2023-03-11T18:32:28.999Z,101936.91
2023-03-11T18:35:35.960Z,101936.94
2023-03-11T18:38:40.064Z,101925.31
2023-03-11T18:41:44.551Z,101933.75
2023-03-11T18:44:48.529Z,101926.16
2023-03-11T18:47:52.815Z,101926.41
2023-03-11T18:50:57.280Z,101924.75
2023-03-11T18:54:04.175Z,101914.69
2023-03-11T18:57:08.333Z,101904.31
2023-03-11T19:00:13.695Z,101922.31
2023-03-11T19:03:17.637Z,101865.88
2023-03-11T19:06:23.416Z,101923.41
2023-03-11T19:09:27.535Z,101908.16
2023-03-11T19:12:34.500Z,101904.66
2023-03-11T19:15:42.699Z,101899.78
2023-03-11T19:18:47.446Z,101915.69
2023-03-11T19:21:51.721Z,101898.53
2023-03-11T19:24:56.181Z,101911.69
2023-03-11T19:28:00.319Z,101904.59
2023-03-11T19:31:05.412Z,101923.09
2023-03-11T19:34:09.508Z,101906.19
2023-03-11T19:37:13.949Z,101905.19
2023-03-11T19:40:18.959Z,101925.75
2023-03-11T19:43:24.642Z,101920.84
2023-03-11T19:46:29.343Z,101922.75
2023-03-11T19:49:33.920Z,101912.97
2023-03-11T19:52:38.392Z,101918.19
2023-03-11T19:55:47.484Z,101930.22
2023-03-11T19:58:55.856Z,101812.13
2023-03-11T20:02:04.646Z,101939.84
2023-03-11T20:05:09.513Z,101933.47
2023-03-11T20:08:18.699Z,101911.69
2023-03-11T20:11:25.755Z,101934.59
2023-03-11T20:14:30.285Z,101928.44
2023-03-11T20:17:35.869Z,101944.22
2023-03-11T20:20:44.242Z,101944.34
2023-03-11T20:23:49.691Z,101935.69
2023-03-11T20:26:54.382Z,101939.19
2023-03-11T20:29:58.354Z,101916.69
2023-03-11T20:33:02.699Z,101941.72
2023-03-11T20:36:09.111Z,101948.28
2023-03-11T20:39:13.448Z,101937.47
2023-03-11T20:42:17.537Z,101945.75
2023-03-11T20:45:22.669Z,101921.44
2023-03-11T20:48:27.281Z,101948.31
2023-03-11T20:51:31.951Z,101928.63
2023-03-11T20:54:35.819Z,101945.13
2023-03-11T20:57:41.045Z,101931.81
2023-03-11T21:00:44.883Z,101930.59
2023-03-11T21:03:49.921Z,101918.22
2023-03-11T21:06:55.650Z,101928.47
2023-03-11T21:09:59.809Z,101919.09
2023-03-11T21:13:03.800Z,101923.41
2023-03-11T21:16:09.900Z,101920.34
2023-03-11T21:19:14.313Z,101926.16
2023-03-11T21:22:21.051Z,101917.25
2023-03-11T21:25:27.677Z,101910.59
2023-03-11T21:28:32.207Z,101926.56
2023-03-11T21:31:37.608Z,101939.41
2023-03-11T21:34:41.762Z,101921.53
2023-03-11T21:37:47.264Z,101927.75
2023-03-11T21:40:52.616Z,101922.50
2023-03-11T21:43:58.011Z,101916.34
2023-03-11T21:47:02.611Z,101925.16
2023-03-11T21:50:07.672Z,101929.34
2023-03-11T21:53:11.918Z,101915.25
2023-03-11T21:56:16.249Z,101917.91
2023-03-11T21:59:21.935Z,101921.94
2023-03-11T22:02:27.903Z,101923.94
2023-03-11T22:05:32.247Z,101795.69
2023-03-11T22:08:36.547Z,101886.38
2023-03-11T22:11:40.996Z,101858.66
2023-03-11T22:14:45.030Z,101883.78
2023-03-11T22:17:49.783Z,101918.53
2023-03-11T22:20:53.887Z,101890.31
2023-03-11T22:23:58.216Z,101861.47
2023-03-11T22:27:02.103Z,101886.66
2023-03-11T22:30:07.479Z,101897.28
2023-03-11T22:33:11.350Z,101914.06
2023-03-11T22:36:15.214Z,101891.56
2023-03-11T22:39:19.350Z,101885.56
2023-03-11T22:42:23.779Z,101860.09
2023-03-11T22:45:27.868Z,101894.88
2023-03-11T22:48:32.222Z,101908.56
2023-03-11T22:51:36.756Z,101873.13
2023-03-11T22:54:41.254Z,101907.50
2023-03-11T22:57:45.132Z,101891.22
2023-03-11T23:00:49.876Z,101902.81
2023-03-11T23:03:54.167Z,101882.25
2023-03-11T23:06:58.516Z,101888.88
2023-03-11T23:10:02.439Z,101895.28
2023-03-11T23:13:07.028Z,101876.75
2023-03-11T23:16:17.334Z,101896.94
2023-03-11T23:19:21.397Z,101873.59
2023-03-11T23:22:25.652Z,101912.38
2023-03-11T23:25:29.952Z,101882.31
2023-03-11T23:28:34.178Z,101842.56
2023-03-11T23:31:38.078Z,101893.06
2023-03-11T23:34:42.159Z,101863.16
2023-03-11T23:37:50.036Z,101906.34
2023-03-11T23:40:54.392Z,101897.28
2023-03-11T23:43:58.352Z,101883.72
2023-03-11T23:47:02.214Z,101896.19
2023-03-11T23:50:07.078Z,101906.88
2023-03-11T23:53:11.213Z,101879.63
2023-03-11T23:56:18.722Z,101902.00
2023-03-11T23:59:22.768Z,101902.34
